Terminal Aerodrome Forecast
Issued by NWS

Home | Current Version | Previous Version | Text Only | Print | Product List | Glossary On
Versions: 1 2 3 4 5 6 7 8 9 10 11 12 13 14
337
FTUS46 KSGX 271720
TAFSNA
TAF
KSNA 271720Z 2718/2818 VRB06KT P6SM FEW015
     FM272100 22009KT P6SM SKC
     FM280100 VRB06KT P6SM SCT015
     FM280800 VRB04KT P6SM OVC010
     FM281700 VRB04KT P6SM SCT012=

USA.gov is the U.S. government's official web portal to all federal, state and local government web resources and services.